Time;durP1;ratioP1;P1;durP2;ratioP2;P2;SDS_P1;SDS_P2;PMS_P1;PMS_P2;Temp;Humidity;BMP_temperature;BMP_pressure;BME280_temperature;BME280_humidity;BME280_pressure;Samples;Min_cycle;Max_cycle;Signal;HPM_P1;HPM_P2
2023/12/21 00:01:04;;;;;;;0.20;0.00;;;;;;;;;;4972122;28;20046;-83
2023/12/21 00:03:30;;;;;;;0.20;0.00;;;;;;;;;;4971202;28;20070;-83
2023/12/21 00:05:56;;;;;;;0.30;0.30;;;;;;;;;;4976120;28;20042;-86
2023/12/21 00:08:22;;;;;;;0.20;0.03;;;;;;;;;;4974694;28;20039;-84
2023/12/21 00:10:48;;;;;;;0.20;0.20;;;;;;;;;;4957744;28;20418;-86
2023/12/21 00:13:14;;;;;;;1.10;0.10;;;;;;;;;;4970386;28;20046;-84
2023/12/21 00:15:40;;;;;;;0.20;0.17;;;;;;;;;;4960407;28;20041;-86
2023/12/21 00:18:06;;;;;;;0.38;0.38;;;;;;;;;;4958131;28;20057;-85
2023/12/21 00:20:32;;;;;;;0.20;0.00;;;;;;;;;;4969307;28;20129;-84
2023/12/21 00:22:58;;;;;;;0.20;0.20;;;;;;;;;;4955714;28;20035;-85
2023/12/21 00:25:24;;;;;;;0.20;0.00;;;;;;;;;;4976573;28;20054;-85
2023/12/21 00:27:50;;;;;;;0.20;0.10;;;;;;;;;;4980266;28;20042;-86
2023/12/21 00:30:16;;;;;;;0.20;0.00;;;;;;;;;;4972793;28;20434;-86
2023/12/21 00:32:46;;;;;;;0.20;0.00;;;;;;;;;;4961507;28;20101;-83
2023/12/21 00:35:12;;;;;;;0.20;0.10;;;;;;;;;;4965310;28;20042;-84
2023/12/21 00:37:40;;;;;;;0.20;0.00;;;;;;;;;;4963811;28;20692;-84
2023/12/21 00:40:13;;;;;;;0.20;0.00;;;;;;;;;;4961413;28;20073;-84
2023/12/21 00:42:42;;;;;;;0.20;0.00;;;;;;;;;;4963479;28;20062;-86
2023/12/21 00:45:08;;;;;;;0.20;0.00;;;;;;;;;;4959198;28;20045;-84
2023/12/21 00:47:35;;;;;;;0.20;0.00;;;;;;;;;;4956107;28;20039;-84
2023/12/21 00:50:01;;;;;;;0.20;0.10;;;;;;;;;;4971752;28;20049;-86
2023/12/21 00:52:27;;;;;;;0.20;0.00;;;;;;;;;;4958002;28;20413;-83
2023/12/21 00:54:53;;;;;;;0.20;0.00;;;;;;;;;;4970733;28;20109;-84
2023/12/21 00:57:19;;;;;;;0.20;0.08;;;;;;;;;;4954549;28;20125;-86
2023/12/21 00:59:45;;;;;;;0.20;0.00;;;;;;;;;;4956931;28;20109;-85
2023/12/21 01:02:11;;;;;;;0.20;0.00;;;;;;;;;;4967377;28;20050;-84
2023/12/21 01:04:38;;;;;;;0.20;0.00;;;;;;;;;;4994064;23;20982;-83
2023/12/21 01:07:05;;;;;;;0.20;0.00;;;;;;;;;;4995310;28;20041;-88
2023/12/21 01:09:31;;;;;;;0.20;0.00;;;;;;;;;;4980586;28;20034;-84
2023/12/21 01:11:59;;;;;;;0.20;0.10;;;;;;;;;;5006875;28;20517;-87
2023/12/21 01:14:31;;;;;;;0.20;0.00;;;;;;;;;;5000285;28;20466;-85
2023/12/21 01:16:57;;;;;;;0.20;0.00;;;;;;;;;;4977869;28;20537;-85
2023/12/21 01:19:23;;;;;;;0.20;0.00;;;;;;;;;;4973898;28;20054;-85
2023/12/21 01:21:49;;;;;;;0.20;0.00;;;;;;;;;;5000780;28;20034;-89
2023/12/21 01:24:15;;;;;;;0.20;0.00;;;;;;;;;;4984644;28;20046;-85
2023/12/21 01:26:41;;;;;;;0.20;0.10;;;;;;;;;;4990758;28;20090;-86
2023/12/21 01:29:13;;;;;;;0.20;0.10;;;;;;;;;;4969411;28;20136;-85
2023/12/21 01:31:39;;;;;;;0.25;0.25;;;;;;;;;;4990921;28;20446;-84
2023/12/21 01:34:22;;;;;;;0.20;0.03;;;;;;;;;;5003483;28;20129;-87
2023/12/21 01:36:51;;;;;;;0.20;0.05;;;;;;;;;;4985973;28;20039;-89
2023/12/21 01:39:17;;;;;;;0.20;0.00;;;;;;;;;;4988940;28;20536;-84
2023/12/21 01:41:46;;;;;;;0.20;0.00;;;;;;;;;;4992886;28;20121;-85
2023/12/21 01:44:12;;;;;;;0.20;0.10;;;;;;;;;;4976242;28;20050;-84
2023/12/21 01:46:38;;;;;;;0.20;0.05;;;;;;;;;;4992558;28;20105;-81
2023/12/21 01:49:10;;;;;;;0.20;0.00;;;;;;;;;;4971305;28;20058;-84
2023/12/21 01:51:39;;;;;;;0.20;0.10;;;;;;;;;;5005337;28;20422;-83
2023/12/21 01:54:12;;;;;;;0.20;0.00;;;;;;;;;;4955718;28;20132;-86
2023/12/21 01:56:42;;;;;;;0.20;0.10;;;;;;;;;;4972204;28;20110;-86
2023/12/21 01:59:13;;;;;;;0.20;0.00;;;;;;;;;;4958750;28;20061;-89
2023/12/21 02:01:39;;;;;;;0.20;0.00;;;;;;;;;;4987403;28;20089;-83
2023/12/21 02:04:16;;;;;;;0.20;0.08;;;;;;;;;;4989093;28;20760;-85
2023/12/21 02:06:42;;;;;;;0.20;0.00;;;;;;;;;;4973272;28;20173;-87
2023/12/21 02:09:08;;;;;;;0.20;0.10;;;;;;;;;;4974721;28;20055;-87
2023/12/21 02:11:34;;;;;;;0.30;0.30;;;;;;;;;;4989827;28;20445;-88
2023/12/21 02:14:00;;;;;;;0.47;0.10;;;;;;;;;;4971746;28;20043;-85
2023/12/21 02:16:47;;;;;;;0.20;0.00;;;;;;;;;;4992705;28;20042;-85
2023/12/21 02:19:16;;;;;;;0.20;0.00;;;;;;;;;;4954067;28;20076;-86
2023/12/21 02:21:43;;;;;;;0.28;0.15;;;;;;;;;;4989384;28;20046;-84
2023/12/21 02:24:18;;;;;;;0.20;0.00;;;;;;;;;;4977880;28;20077;-87
2023/12/21 02:26:47;;;;;;;0.20;0.10;;;;;;;;;;4969473;28;20038;-84
2023/12/21 02:29:13;;;;;;;0.20;0.00;;;;;;;;;;4986952;28;20043;-84
2023/12/21 02:31:39;;;;;;;0.20;0.00;;;;;;;;;;4991588;28;20767;-86
2023/12/21 02:34:09;;;;;;;0.22;0.15;;;;;;;;;;4961082;28;20081;-85
2023/12/21 02:36:35;;;;;;;0.20;0.00;;;;;;;;;;4985746;28;20513;-84
2023/12/21 02:39:01;;;;;;;0.20;0.00;;;;;;;;;;4973162;28;20042;-83
2023/12/21 02:41:27;;;;;;;0.20;0.10;;;;;;;;;;4986027;28;20041;-87
2023/12/21 02:43:53;;;;;;;0.30;0.20;;;;;;;;;;4960122;28;20038;-88
2023/12/21 02:46:24;;;;;;;0.25;0.10;;;;;;;;;;5002624;28;20077;-88
2023/12/21 02:48:51;;;;;;;0.20;0.08;;;;;;;;;;4982201;28;20045;-85
2023/12/21 02:51:17;;;;;;;0.20;0.00;;;;;;;;;;4984608;28;20054;-86
2023/12/21 02:53:44;;;;;;;0.20;0.00;;;;;;;;;;4956934;28;20043;-88
2023/12/21 02:56:10;;;;;;;0.20;0.00;;;;;;;;;;4955777;28;20046;-86
2023/12/21 02:58:36;;;;;;;0.55;0.55;;;;;;;;;;4981464;28;20130;-87
2023/12/21 03:01:03;;;;;;;0.45;0.45;;;;;;;;;;4956914;28;20524;-87
2023/12/21 03:03:29;;;;;;;0.20;0.10;;;;;;;;;;4967983;28;20082;-87
2023/12/21 03:05:55;;;;;;;0.20;0.00;;;;;;;;;;4958646;28;20046;-85
2023/12/21 03:08:31;;;;;;;0.20;0.00;;;;;;;;;;4999869;28;20042;-86
2023/12/21 03:11:00;;;;;;;0.20;0.10;;;;;;;;;;4970484;28;20030;-86
2023/12/21 03:13:27;;;;;;;0.20;0.10;;;;;;;;;;4972140;28;20045;-85
2023/12/21 03:16:13;;;;;;;0.20;0.10;;;;;;;;;;4988425;28;20049;-87
2023/12/21 03:18:42;;;;;;;0.20;0.10;;;;;;;;;;4987525;28;20052;-86
2023/12/21 03:21:10;;;;;;;0.20;0.20;;;;;;;;;;4991606;28;20064;-86
2023/12/21 03:23:40;;;;;;;0.20;0.10;;;;;;;;;;4968431;28;20533;-87
2023/12/21 03:26:14;;;;;;;0.30;0.30;;;;;;;;;;5002003;28;20038;-86
2023/12/21 03:28:53;;;;;;;0.20;0.03;;;;;;;;;;4975673;28;20042;-86
2023/12/21 03:31:40;;;;;;;0.20;0.00;;;;;;;;;;4960674;28;20046;-86
2023/12/21 03:34:06;;;;;;;0.20;0.00;;;;;;;;;;4977703;28;20530;-86
2023/12/21 03:36:32;;;;;;;0.38;0.38;;;;;;;;;;4990744;28;20062;-87
2023/12/21 03:39:01;;;;;;;0.20;0.20;;;;;;;;;;4960070;28;20728;-86
2023/12/21 03:41:27;;;;;;;0.20;0.10;;;;;;;;;;4990893;28;20490;-89
2023/12/21 03:43:53;;;;;;;0.20;0.10;;;;;;;;;;4984711;28;20057;-87
2023/12/21 03:46:27;;;;;;;0.20;0.00;;;;;;;;;;4984531;28;20054;-87
2023/12/21 03:48:53;;;;;;;0.20;0.10;;;;;;;;;;4988152;28;20056;-85
2023/12/21 03:51:22;;;;;;;0.22;0.22;;;;;;;;;;4988924;28;20034;-85
2023/12/21 03:53:57;;;;;;;0.20;0.10;;;;;;;;;;4973470;28;20089;-87
2023/12/21 03:56:39;;;;;;;0.20;0.00;;;;;;;;;;5004045;28;20324;-88
2023/12/21 03:59:17;;;;;;;0.20;0.00;;;;;;;;;;4977724;28;20038;-86
2023/12/21 04:01:43;;;;;;;0.20;0.00;;;;;;;;;;4991585;28;20041;-85
2023/12/21 04:04:09;;;;;;;0.20;0.00;;;;;;;;;;5008063;28;20081;-86
2023/12/21 04:06:37;;;;;;;0.38;0.10;;;;;;;;;;4977450;28;20043;-85
2023/12/21 04:09:04;;;;;;;0.20;0.00;;;;;;;;;;4975912;28;20057;-85
2023/12/21 04:11:30;;;;;;;0.20;0.10;;;;;;;;;;4970943;28;20065;-83
2023/12/21 04:14:03;;;;;;;0.20;0.10;;;;;;;;;;4971828;28;20490;-86
2023/12/21 04:16:29;;;;;;;0.20;0.10;;;;;;;;;;4987383;28;20069;-86
2023/12/21 04:18:56;;;;;;;0.20;0.00;;;;;;;;;;4989039;28;20054;-84
2023/12/21 04:21:31;;;;;;;0.20;0.08;;;;;;;;;;4987936;28;20450;-86
2023/12/21 04:24:00;;;;;;;0.20;0.00;;;;;;;;;;4982087;28;20150;-83
2023/12/21 04:26:37;;;;;;;0.20;0.00;;;;;;;;;;5004260;28;20053;-85
2023/12/21 04:29:11;;;;;;;0.20;0.00;;;;;;;;;;5003649;28;20042;-87
2023/12/21 04:31:58;;;;;;;0.20;0.00;;;;;;;;;;4995264;28;20070;-85
2023/12/21 04:34:27;;;;;;;0.20;0.00;;;;;;;;;;4976294;28;20069;-84
2023/12/21 04:36:53;;;;;;;0.20;0.00;;;;;;;;;;5008460;28;20030;-85
2023/12/21 04:39:20;;;;;;;0.20;0.00;;;;;;;;;;4992160;28;20041;-86
2023/12/21 04:41:46;;;;;;;0.20;0.05;;;;;;;;;;5005495;28;20049;-86
2023/12/21 04:44:12;;;;;;;0.20;0.00;;;;;;;;;;4971434;28;20128;-87
2023/12/21 04:46:42;;;;;;;0.20;0.00;;;;;;;;;;4961679;28;20042;-84
2023/12/21 04:49:08;;;;;;;0.20;0.00;;;;;;;;;;4975090;28;20109;-85
2023/12/21 04:51:34;;;;;;;0.20;0.10;;;;;;;;;;4990130;28;20173;-85
2023/12/21 04:54:00;;;;;;;0.20;0.00;;;;;;;;;;4993008;28;20085;-85
2023/12/21 04:56:42;;;;;;;0.20;0.00;;;;;;;;;;4971495;28;20074;-86
2023/12/21 04:59:09;;;;;;;0.20;0.00;;;;;;;;;;4991834;28;20550;-84
2023/12/21 05:01:35;;;;;;;0.20;0.00;;;;;;;;;;4973188;28;20042;-84
2023/12/21 05:04:10;;;;;;;0.20;0.10;;;;;;;;;;4989347;28;20054;-86
2023/12/21 05:06:41;;;;;;;0.20;0.10;;;;;;;;;;4959529;28;21794;-84
2023/12/21 05:09:16;;;;;;;0.20;0.00;;;;;;;;;;4975107;28;20112;-88
2023/12/21 05:11:45;;;;;;;0.20;0.00;;;;;;;;;;5005035;28;20042;-87
2023/12/21 05:14:18;;;;;;;0.20;0.10;;;;;;;;;;4989837;28;20034;-85
2023/12/21 05:16:49;;;;;;;0.20;0.10;;;;;;;;;;4972877;28;20081;-86
2023/12/21 05:19:18;;;;;;;0.20;0.10;;;;;;;;;;4969768;28;20053;-86
2023/12/21 05:21:51;;;;;;;0.20;0.10;;;;;;;;;;4974011;28;20131;-86
2023/12/21 05:24:32;;;;;;;0.20;0.10;;;;;;;;;;4973518;28;20237;-88
2023/12/21 05:27:01;;;;;;;0.20;0.00;;;;;;;;;;5006465;28;20117;-86
2023/12/21 05:29:33;;;;;;;0.20;0.00;;;;;;;;;;4988261;28;20510;-86
2023/12/21 05:32:02;;;;;;;0.20;0.08;;;;;;;;;;4974528;28;20046;-88
2023/12/21 05:34:34;;;;;;;0.20;0.00;;;;;;;;;;4989837;28;20053;-85
2023/12/21 05:37:00;;;;;;;0.20;0.10;;;;;;;;;;5000526;28;20121;-87
2023/12/21 05:39:29;;;;;;;0.20;0.00;;;;;;;;;;5006497;28;20046;-86
2023/12/21 05:42:04;;;;;;;0.20;0.20;;;;;;;;;;4990189;28;20053;-87
2023/12/21 05:44:30;;;;;;;0.20;0.10;;;;;;;;;;4990327;28;20038;-83
2023/12/21 05:46:59;;;;;;;0.20;0.10;;;;;;;;;;4970401;28;20050;-86
2023/12/21 05:49:27;;;;;;;0.20;0.00;;;;;;;;;;4973709;28;20337;-85
2023/12/21 05:52:16;;;;;;;0.20;0.00;;;;;;;;;;4970125;28;20047;-86
2023/12/21 05:54:51;;;;;;;0.20;0.10;;;;;;;;;;4989534;28;20042;-85
2023/12/21 05:57:32;;;;;;;0.20;0.00;;;;;;;;;;4972725;28;20491;-86
2023/12/21 06:00:04;;;;;;;0.20;0.10;;;;;;;;;;4974988;28;20739;-83
2023/12/21 06:02:37;;;;;;;0.20;0.00;;;;;;;;;;5004052;28;20064;-85
2023/12/21 06:05:07;;;;;;;0.20;0.05;;;;;;;;;;4983904;28;20176;-88
2023/12/21 06:07:46;;;;;;;0.20;0.00;;;;;;;;;;4986589;28;20126;-84
2023/12/21 06:10:21;;;;;;;0.20;0.10;;;;;;;;;;4986334;28;20402;-87
2023/12/21 06:12:50;;;;;;;0.20;0.00;;;;;;;;;;5006611;28;20039;-85
2023/12/21 06:15:25;;;;;;;0.20;0.03;;;;;;;;;;4983882;28;20054;-85
2023/12/21 06:17:59;;;;;;;0.20;0.13;;;;;;;;;;4958934;28;20039;-86
2023/12/21 06:20:34;;;;;;;0.20;0.10;;;;;;;;;;4975824;28;21764;-84
2023/12/21 06:23:14;;;;;;;;;;;;;;;;;;4994228;28;20072;-86
2023/12/21 06:25:40;;;;;;;0.20;0.10;;;;;;;;;;5002013;28;20484;-86
2023/12/21 06:28:06;;;;;;;0.20;0.00;;;;;;;;;;5002419;28;20042;-86
2023/12/21 06:30:38;;;;;;;0.22;0.05;;;;;;;;;;4988757;28;20046;-84
2023/12/21 06:33:13;;;;;;;0.20;0.10;;;;;;;;;;4972302;28;20037;-85
2023/12/21 06:35:42;;;;;;;0.20;0.00;;;;;;;;;;4967249;28;20070;-83
2023/12/21 06:38:11;;;;;;;0.20;0.10;;;;;;;;;;4976649;28;20046;-84
2023/12/21 06:40:50;;;;;;;0.20;0.10;;;;;;;;;;4983281;28;20042;-85
2023/12/21 06:43:26;;;;;;;;;;;;;;;;;;;;;
2023/12/21 06:45:57;;;;;;;0.55;0.50;;;;;;;;;;5005110;28;20049;-86
2023/12/21 06:48:25;;;;;;;0.20;0.10;;;;;;;;;;4971452;28;20074;-85
2023/12/21 06:50:54;;;;;;;0.20;0.10;;;;;;;;;;4957653;28;20049;-83
2023/12/21 06:56:17;;;;;;;0.20;0.10;;;;;;;;;;4972559;28;20034;-82
2023/12/21 06:58:49;;;;;;;0.25;0.20;;;;;;;;;;4972583;28;20042;-86
2023/12/21 07:01:21;;;;;;;0.20;0.10;;;;;;;;;;4972122;28;20579;-83
2023/12/21 07:03:54;;;;;;;0.20;0.00;;;;;;;;;;4989855;23;20405;-88
2023/12/21 07:06:25;;;;;;;0.20;0.00;;;;;;;;;;4986877;28;20404;-88
2023/12/21 07:08:51;;;;;;;0.20;0.10;;;;;;;;;;4993817;28;20112;-85
2023/12/21 07:11:23;;;;;;;0.20;0.00;;;;;;;;;;5008742;28;20041;-86
2023/12/21 07:13:55;;;;;;;0.20;0.00;;;;;;;;;;4990812;28;20095;-87
2023/12/21 07:16:51;;;;;;;0.20;0.08;;;;;;;;;;4974843;28;20072;-88
2023/12/21 07:19:31;;;;;;;0.20;0.08;;;;;;;;;;5002177;28;20037;-87
2023/12/21 07:22:02;;;;;;;0.20;0.10;;;;;;;;;;5017517;28;20049;-86
2023/12/21 07:24:34;;;;;;;0.20;0.10;;;;;;;;;;4990001;28;20544;-87
2023/12/21 07:27:00;;;;;;;0.20;0.00;;;;;;;;;;4984864;28;20038;-85
2023/12/21 07:29:30;;;;;;;0.20;0.00;;;;;;;;;;5001284;28;20099;-85
2023/12/21 07:31:59;;;;;;;0.20;0.00;;;;;;;;;;5004359;28;20037;-87
2023/12/21 07:34:35;;;;;;;0.20;0.00;;;;;;;;;;5001368;28;20041;-86
2023/12/21 07:37:04;;;;;;;0.20;0.10;;;;;;;;;;5009714;28;20045;-86
2023/12/21 07:39:46;;;;;;;0.20;0.10;;;;;;;;;;5003822;28;20532;-86
2023/12/21 07:42:34;;;;;;;0.20;0.00;;;;;;;;;;5006381;28;20052;-84
2023/12/21 07:45:00;;;;;;;0.20;0.05;;;;;;;;;;5003344;28;20060;-86
2023/12/21 07:47:35;;;;;;;0.20;0.00;;;;;;;;;;5004750;28;20065;-86
2023/12/21 07:50:04;;;;;;;0.20;0.10;;;;;;;;;;5002076;28;20052;-87
2023/12/21 07:52:33;;;;;;;0.20;0.00;;;;;;;;;;5002094;28;20116;-85
2023/12/21 07:55:08;;;;;;;0.20;0.10;;;;;;;;;;4996462;28;20395;-87
2023/12/21 07:57:52;;;;;;;0.20;0.10;;;;;;;;;;4990108;28;20068;-85
2023/12/21 08:00:18;;;;;;;0.20;0.00;;;;;;;;;;5004835;28;20045;-86
2023/12/21 08:02:48;;;;;;;0.20;0.00;;;;;;;;;;5004094;28;20044;-86
2023/12/21 08:05:14;;;;;;;0.20;0.08;;;;;;;;;;5005203;28;21196;-85
2023/12/21 08:07:46;;;;;;;0.20;0.00;;;;;;;;;;4988721;28;20041;-86
2023/12/21 08:10:17;;;;;;;0.20;0.00;;;;;;;;;;5001178;28;20060;-86
2023/12/21 08:12:55;;;;;;;0.20;0.00;;;;;;;;;;4993378;28;20748;-86
2023/12/21 08:15:27;;;;;;;0.20;0.00;;;;;;;;;;5007395;28;20199;-88
2023/12/21 08:18:21;;;;;;;;;;;;;;;;;;;;;
2023/12/21 08:20:58;;;;;;;0.20;0.10;;;;;;;;;;5003703;28;20133;-86
2023/12/21 08:23:33;;;;;;;0.20;0.00;;;;;;;;;;4990877;28;20470;-85
2023/12/21 08:26:03;;;;;;;0.32;0.32;;;;;;;;;;5004021;28;20045;-86
2023/12/21 08:28:43;;;;;;;0.20;0.00;;;;;;;;;;5017676;28;20034;-88
2023/12/21 08:31:12;;;;;;;0.20;0.10;;;;;;;;;;5005335;28;20042;-84
2023/12/21 08:33:47;;;;;;;0.20;0.10;;;;;;;;;;5003863;28;20111;-85
2023/12/21 08:36:16;;;;;;;0.20;0.00;;;;;;;;;;4985531;28;20056;-85
2023/12/21 08:38:44;;;;;;;0.20;0.00;;;;;;;;;;5010785;28;20083;-86
2023/12/21 08:41:14;;;;;;;0.20;0.10;;;;;;;;;;5004294;28;20042;-85
2023/12/21 08:43:46;;;;;;;0.20;0.00;;;;;;;;;;5019937;28;20030;-86
2023/12/21 08:46:15;;;;;;;0.20;0.00;;;;;;;;;;5010200;28;20131;-86
2023/12/21 08:48:50;;;;;;;0.20;0.08;;;;;;;;;;5010338;28;20131;-83
2023/12/21 08:51:38;;;;;;;0.73;0.73;;;;;;;;;;5001639;28;20414;-87
2023/12/21 08:54:08;;;;;;;0.20;0.03;;;;;;;;;;4993791;28;20103;-84
2023/12/21 08:56:44;;;;;;;0.20;0.00;;;;;;;;;;4995950;28;20037;-86
2023/12/21 08:59:12;;;;;;;0.20;0.00;;;;;;;;;;5005285;28;20041;-85
2023/12/21 09:01:42;;;;;;;0.20;0.00;;;;;;;;;;5000289;28;20041;-88
2023/12/21 09:04:30;;;;;;;0.20;0.05;;;;;;;;;;4994790;28;20456;-86
2023/12/21 09:07:05;;;;;;;0.20;0.00;;;;;;;;;;5011412;28;20074;-88
2023/12/21 09:09:41;;;;;;;0.20;0.00;;;;;;;;;;4994329;28;20131;-84
2023/12/21 09:12:25;;;;;;;0.20;0.00;;;;;;;;;;5008058;28;20095;-89
2023/12/21 09:14:54;;;;;;;0.20;0.00;;;;;;;;;;4989087;28;20493;-85
2023/12/21 09:17:31;;;;;;;0.20;0.00;;;;;;;;;;4990796;28;20566;-85
2023/12/21 09:20:08;;;;;;;0.22;0.20;;;;;;;;;;4994377;28;20087;-85
2023/12/21 09:22:44;;;;;;;0.20;0.10;;;;;;;;;;5006753;28;20046;-85
2023/12/21 09:25:10;;;;;;;0.20;0.10;;;;;;;;;;5005511;28;20048;-86
2023/12/21 09:27:48;;;;;;;;;;;;;;;;;;;;;
2023/12/21 09:30:26;;;;;;;0.20;0.00;;;;;;;;;;5003889;28;20041;-86
2023/12/21 09:33:03;;;;;;;0.20;0.00;;;;;;;;;;5023504;28;20513;-84
2023/12/21 09:35:44;;;;;;;0.20;0.00;;;;;;;;;;4999927;28;20044;-85
2023/12/21 09:38:10;;;;;;;0.20;0.17;;;;;;;;;;4993567;28;20060;-86
2023/12/21 09:40:53;;;;;;;0.20;0.00;;;;;;;;;;4995385;28;20038;-85
2023/12/21 09:43:19;;;;;;;;;;;;;;;;;;5007180;28;20041;-84
2023/12/21 09:45:46;;;;;;;0.20;0.10;;;;;;;;;;5013295;28;20273;-85
2023/12/21 09:48:17;;;;;;;0.20;0.10;;;;;;;;;;4997828;28;20261;-85
2023/12/21 09:50:47;;;;;;;0.20;0.10;;;;;;;;;;5011173;28;20132;-88
2023/12/21 09:53:33;;;;;;;0.20;0.00;;;;;;;;;;5004452;28;20049;-85
2023/12/21 09:56:03;;;;;;;0.20;0.00;;;;;;;;;;4998245;28;20049;-87
2023/12/21 09:58:33;;;;;;;0.20;0.00;;;;;;;;;;5031272;28;20049;-86
2023/12/21 10:01:05;;;;;;;0.20;0.00;;;;;;;;;;4997412;28;20088;-85
2023/12/21 10:03:32;;;;;;;0.20;0.00;;;;;;;;;;5024272;28;20049;-87
2023/12/21 10:05:58;;;;;;;0.40;0.35;;;;;;;;;;4994856;28;20453;-87
2023/12/21 10:08:27;;;;;;;0.20;0.00;;;;;;;;;;5012173;28;20053;-85
2023/12/21 10:10:58;;;;;;;0.20;0.03;;;;;;;;;;4997029;28;20049;-87
2023/12/21 10:13:31;;;;;;;0.20;0.08;;;;;;;;;;5009423;28;20401;-85
2023/12/21 10:16:00;;;;;;;0.20;0.00;;;;;;;;;;4994449;28;20053;-86
2023/12/21 10:18:39;;;;;;;0.20;0.00;;;;;;;;;;4990817;28;20042;-87
2023/12/21 10:21:08;;;;;;;0.20;0.00;;;;;;;;;;4990908;28;20049;-83
2023/12/21 10:23:49;;;;;;;0.20;0.00;;;;;;;;;;5022047;28;20496;-86
2023/12/21 10:26:18;;;;;;;0.20;0.00;;;;;;;;;;4993366;28;20044;-86
2023/12/21 10:28:49;;;;;;;0.20;0.00;;;;;;;;;;4992927;28;20034;-85
2023/12/21 10:31:16;;;;;;;0.57;0.57;;;;;;;;;;4998163;28;20512;-86
2023/12/21 10:33:45;;;;;;;0.95;0.40;;;;;;;;;;4988748;28;20537;-85
2023/12/21 10:36:16;;;;;;;0.20;0.00;;;;;;;;;;5004941;28;20049;-85
2023/12/21 10:38:51;;;;;;;0.20;0.10;;;;;;;;;;4993588;28;20108;-87
2023/12/21 10:41:24;;;;;;;0.20;0.00;;;;;;;;;;4993895;28;20488;-87
2023/12/21 10:43:50;;;;;;;;;;;;;;;;;;5006424;28;20102;-85
2023/12/21 10:46:19;;;;;;;0.20;0.00;;;;;;;;;;4993604;28;19921;-86
2023/12/21 10:48:49;;;;;;;0.20;0.00;;;;;;;;;;5025244;28;20045;-86
2023/12/21 10:51:22;;;;;;;0.20;0.00;;;;;;;;;;4998014;28;20045;-87
2023/12/21 10:53:48;;;;;;;0.20;0.00;;;;;;;;;;5035525;22;20065;-86
2023/12/21 10:56:27;;;;;;;0.28;0.20;;;;;;;;;;5007210;28;20049;-84
2023/12/21 10:59:03;;;;;;;0.43;0.32;;;;;;;;;;5010485;28;20056;-86
2023/12/21 11:01:35;;;;;;;0.20;0.00;;;;;;;;;;5009805;28;20060;-86
2023/12/21 11:04:05;;;;;;;0.20;0.00;;;;;;;;;;5020129;28;20048;-85
2023/12/21 11:06:34;;;;;;;0.20;0.00;;;;;;;;;;5006120;28;20095;-87
2023/12/21 11:09:06;;;;;;;1.38;1.27;;;;;;;;;;5090527;23;20036;-86
2023/12/21 11:11:33;;;;;;;0.20;0.10;;;;;;;;;;5036107;28;20032;-84
2023/12/21 11:14:01;;;;;;;0.20;0.00;;;;;;;;;;5007756;28;20088;-85
2023/12/21 11:16:38;;;;;;;0.20;0.00;;;;;;;;;;5020378;28;20044;-85
2023/12/21 11:19:06;;;;;;;0.20;0.00;;;;;;;;;;5022991;28;20041;-85
2023/12/21 11:21:55;;;;;;;0.20;0.08;;;;;;;;;;5016144;28;20036;-85
2023/12/21 11:24:25;;;;;;;0.20;0.00;;;;;;;;;;5025857;28;20068;-85
2023/12/21 11:26:59;;;;;;;0.20;0.00;;;;;;;;;;5017170;28;20037;-86
2023/12/21 11:29:28;;;;;;;0.20;0.10;;;;;;;;;;5020848;28;20099;-85
2023/12/21 11:32:05;;;;;;;0.20;0.03;;;;;;;;;;5013619;28;20048;-86
2023/12/21 11:34:34;;;;;;;0.20;0.00;;;;;;;;;;5014276;28;20049;-83
2023/12/21 11:37:17;;;;;;;0.20;0.00;;;;;;;;;;5017217;28;20036;-84
2023/12/21 11:39:44;;;;;;;0.20;0.00;;;;;;;;;;5014450;28;20041;-85
2023/12/21 11:42:13;;;;;;;0.20;0.00;;;;;;;;;;5013076;28;20045;-82
2023/12/21 11:44:39;;;;;;;0.30;0.30;;;;;;;;;;5020411;28;20472;-84
2023/12/21 11:47:08;;;;;;;0.20;0.00;;;;;;;;;;5030851;28;20159;-85
2023/12/21 11:49:35;;;;;;;0.35;0.35;;;;;;;;;;5010813;28;20127;-86
2023/12/21 11:52:01;;;;;;;0.20;0.10;;;;;;;;;;5004524;28;20091;-85
2023/12/21 11:54:30;;;;;;;0.20;0.10;;;;;;;;;;5008523;28;20056;-85
2023/12/21 11:57:15;;;;;;;0.20;0.03;;;;;;;;;;5011845;28;20037;-87
2023/12/21 12:00:05;;;;;;;0.20;0.10;;;;;;;;;;5009742;28;20044;-85
2023/12/21 12:02:34;;;;;;;0.20;0.00;;;;;;;;;;5028426;28;20043;-88
2023/12/21 12:05:02;;;;;;;0.20;0.10;;;;;;;;;;5011384;28;20135;-85
2023/12/21 12:07:29;;;;;;;0.20;0.00;;;;;;;;;;5043584;28;20714;-83
2023/12/21 12:09:55;;;;;;;0.20;0.00;;;;;;;;;;5015929;28;20041;-87
2023/12/21 12:12:28;;;;;;;0.20;0.00;;;;;;;;;;5015533;28;20068;-82
2023/12/21 12:14:57;;;;;;;0.20;0.00;;;;;;;;;;5014157;28;20044;-86
2023/12/21 12:17:31;;;;;;;0.20;0.10;;;;;;;;;;5036532;28;20048;-86
2023/12/21 12:19:57;;;;;;;0.20;0.00;;;;;;;;;;5012475;28;20079;-86
2023/12/21 12:22:23;;;;;;;0.20;0.10;;;;;;;;;;5012200;28;20037;-87
2023/12/21 12:24:51;;;;;;;0.20;0.00;;;;;;;;;;5052008;28;20606;-85
2023/12/21 12:27:17;;;;;;;0.20;0.00;;;;;;;;;;5017271;28;20554;-86
2023/12/21 12:29:43;;;;;;;0.20;0.00;;;;;;;;;;5019181;28;20108;-85
2023/12/21 12:32:11;;;;;;;0.30;0.30;;;;;;;;;;5016340;28;20135;-84
2023/12/21 12:34:37;;;;;;;0.20;0.00;;;;;;;;;;5035880;28;20296;-85
2023/12/21 12:37:07;;;;;;;0.20;0.00;;;;;;;;;;5018770;28;20386;-84
2023/12/21 12:39:33;;;;;;;0.20;0.00;;;;;;;;;;5037486;28;20084;-82
2023/12/21 12:41:59;;;;;;;0.20;0.00;;;;;;;;;;5035714;28;20040;-84
2023/12/21 12:44:25;;;;;;;0.20;0.10;;;;;;;;;;5017281;28;20512;-82
2023/12/21 12:46:52;;;;;;;0.20;0.00;;;;;;;;;;5019665;28;20048;-81
2023/12/21 12:49:22;;;;;;;0.20;0.00;;;;;;;;;;5036098;28;20045;-85
2023/12/21 12:51:48;;;;;;;0.20;0.10;;;;;;;;;;5035336;28;20045;-85
2023/12/21 12:54:14;;;;;;;0.20;0.00;;;;;;;;;;5032056;28;20053;-86
2023/12/21 12:56:46;;;;;;;0.20;0.05;;;;;;;;;;5020932;28;20083;-86
2023/12/21 12:59:21;;;;;;;0.20;0.00;;;;;;;;;;5016344;28;20396;-88
2023/12/21 13:01:47;;;;;;;0.20;0.00;;;;;;;;;;5015673;28;20131;-83
2023/12/21 13:04:16;;;;;;;0.20;0.10;;;;;;;;;;5015689;28;20037;-86
2023/12/21 13:06:49;;;;;;;0.20;0.00;;;;;;;;;;5038172;28;20032;-85
2023/12/21 13:09:18;;;;;;;0.43;0.38;;;;;;;;;;5022972;28;20517;-86
2023/12/21 13:11:44;;;;;;;0.20;0.00;;;;;;;;;;5028546;28;20040;-81
2023/12/21 13:14:15;;;;;;;0.40;0.40;;;;;;;;;;5016739;28;20408;-87
2023/12/21 13:16:42;;;;;;;0.20;0.00;;;;;;;;;;5012101;28;20066;-86
2023/12/21 13:19:11;;;;;;;0.20;0.00;;;;;;;;;;5014415;28;20146;-83
2023/12/21 13:21:43;;;;;;;0.20;0.00;;;;;;;;;;5036334;28;20098;-83
2023/12/21 13:24:10;;;;;;;0.20;0.00;;;;;;;;;;5011439;28;20080;-84
2023/12/21 13:26:38;;;;;;;0.45;0.45;;;;;;;;;;5026492;28;20129;-85
2023/12/21 13:29:06;;;;;;;0.20;0.00;;;;;;;;;;5029863;28;20037;-83
2023/12/21 13:31:32;;;;;;;0.20;0.00;;;;;;;;;;5013611;28;20073;-84
2023/12/21 13:33:58;;;;;;;0.20;0.00;;;;;;;;;;5007939;28;20057;-84
2023/12/21 13:36:27;;;;;;;0.43;0.43;;;;;;;;;;5013725;28;20098;-87
2023/12/21 13:38:56;;;;;;;0.20;0.00;;;;;;;;;;5026738;28;20049;-84
2023/12/21 13:41:25;;;;;;;0.20;0.10;;;;;;;;;;5011485;28;20044;-85
2023/12/21 13:43:54;;;;;;;0.20;0.00;;;;;;;;;;5027192;28;20056;-84
2023/12/21 13:46:21;;;;;;;4.47;1.90;;;;;;;;;;5012984;28;20030;-85
2023/12/21 13:48:48;;;;;;;0.20;0.05;;;;;;;;;;5012531;28;20484;-85
2023/12/21 13:51:14;;;;;;;0.20;0.00;;;;;;;;;;5033148;28;20245;-87
2023/12/21 13:53:40;;;;;;;0.20;0.08;;;;;;;;;;5009921;28;20041;-84
2023/12/21 13:56:07;;;;;;;0.20;0.10;;;;;;;;;;5011834;28;20389;-84
2023/12/21 13:58:33;;;;;;;0.30;0.22;;;;;;;;;;5028456;28;20060;-81
2023/12/21 14:00:59;;;;;;;0.20;0.10;;;;;;;;;;5011622;28;20041;-84
2023/12/21 14:03:25;;;;;;;0.20;0.00;;;;;;;;;;5021388;28;20042;-86
2023/12/21 14:05:51;;;;;;;0.20;0.00;;;;;;;;;;5023414;28;20034;-84
2023/12/21 14:08:17;;;;;;;0.20;0.03;;;;;;;;;;5010184;28;20120;-86
2023/12/21 14:10:44;;;;;;;0.20;0.00;;;;;;;;;;5026579;28;20041;-85
2023/12/21 14:13:10;;;;;;;0.20;0.10;;;;;;;;;;5013187;28;20140;-82
2023/12/21 14:15:37;;;;;;;6.22;2.40;;;;;;;;;;5030282;28;20072;-85
2023/12/21 14:18:03;;;;;;;0.20;0.10;;;;;;;;;;5021449;28;20087;-84
2023/12/21 14:20:29;;;;;;;0.20;0.20;;;;;;;;;;5015585;28;20498;-86
2023/12/21 14:22:55;;;;;;;0.20;0.00;;;;;;;;;;5019660;28;20555;-86
2023/12/21 14:25:21;;;;;;;0.20;0.00;;;;;;;;;;5016240;28;20040;-87
2023/12/21 14:27:51;;;;;;;0.63;0.63;;;;;;;;;;5012548;28;20131;-87
2023/12/21 14:30:17;;;;;;;0.20;0.10;;;;;;;;;;5013386;28;20501;-85
2023/12/21 14:32:44;;;;;;;0.20;0.00;;;;;;;;;;5007063;28;20041;-85
2023/12/21 14:35:10;;;;;;;0.20;0.10;;;;;;;;;;5027916;28;20046;-87
2023/12/21 14:37:36;;;;;;;0.20;0.00;;;;;;;;;;5011795;28;20037;-86
2023/12/21 14:40:03;;;;;;;0.20;0.00;;;;;;;;;;5017500;28;20060;-83
2023/12/21 14:42:30;;;;;;;0.20;0.10;;;;;;;;;;5024260;28;20098;-85
2023/12/21 14:44:56;;;;;;;0.20;0.10;;;;;;;;;;5024790;28;20075;-84
2023/12/21 14:47:22;;;;;;;0.20;0.08;;;;;;;;;;5011304;28;20029;-84
2023/12/21 14:49:51;;;;;;;10.45;0.63;;;;;;;;;;5027606;28;20076;-88
2023/12/21 14:52:20;;;;;;;0.20;0.10;;;;;;;;;;5015438;28;20037;-84
2023/12/21 14:54:46;;;;;;;0.20;0.00;;;;;;;;;;5001791;28;20041;-84
2023/12/21 14:57:12;;;;;;;0.20;0.00;;;;;;;;;;5023386;28;20079;-85
2023/12/21 14:59:39;;;;;;;0.20;0.05;;;;;;;;;;5029077;28;20463;-84
2023/12/21 15:02:05;;;;;;;0.20;0.10;;;;;;;;;;5010646;28;20113;-84
2023/12/21 15:04:31;;;;;;;0.20;0.05;;;;;;;;;;5006444;28;20064;-84
2023/12/21 15:06:57;;;;;;;0.20;0.00;;;;;;;;;;5008654;28;20036;-89